sensor_id;sensor_type;location;lat;lon;timestamp;P1;durP1;ratioP1;P2;durP2;ratioP2
9007;SDS011;62813;51.424;6.762;2023-11-19T00:00:08;10.60;;;8.37;;
9007;SDS011;62813;51.424;6.762;2023-11-19T00:02:40;9.90;;;8.57;;
9007;SDS011;62813;51.424;6.762;2023-11-19T00:05:08;8.97;;;8.00;;
9007;SDS011;62813;51.424;6.762;2023-11-19T00:07:36;9.97;;;8.30;;
9007;SDS011;62813;51.424;6.762;2023-11-19T00:10:03;11.33;;;7.33;;
9007;SDS011;62813;51.424;6.762;2023-11-19T00:12:41;8.50;;;7.47;;
9007;SDS011;62813;51.424;6.762;2023-11-19T00:15:11;9.20;;;7.10;;
9007;SDS011;62813;51.424;6.762;2023-11-19T00:17:38;6.80;;;6.10;;
9007;SDS011;62813;51.424;6.762;2023-11-19T00:20:16;8.10;;;6.20;;
9007;SDS011;62813;51.424;6.762;2023-11-19T00:22:44;8.47;;;6.50;;
9007;SDS011;62813;51.424;6.762;2023-11-19T00:25:15;7.37;;;6.60;;
9007;SDS011;62813;51.424;6.762;2023-11-19T00:27:42;12.17;;;6.33;;
9007;SDS011;62813;51.424;6.762;2023-11-19T00:30:11;6.77;;;6.00;;
9007;SDS011;62813;51.424;6.762;2023-11-19T00:32:38;7.30;;;5.70;;
9007;SDS011;62813;51.424;6.762;2023-11-19T00:35:06;7.87;;;5.57;;
9007;SDS011;62813;51.424;6.762;2023-11-19T00:37:42;9.57;;;5.60;;
9007;SDS011;62813;51.424;6.762;2023-11-19T00:40:09;7.30;;;5.30;;
9007;SDS011;62813;51.424;6.762;2023-11-19T00:42:37;8.30;;;5.47;;
9007;SDS011;62813;51.424;6.762;2023-11-19T00:45:04;7.77;;;5.13;;
9007;SDS011;62813;51.424;6.762;2023-11-19T00:47:36;8.80;;;5.90;;
9007;SDS011;62813;51.424;6.762;2023-11-19T00:50:03;9.73;;;5.87;;
9007;SDS011;62813;51.424;6.762;2023-11-19T00:52:30;6.43;;;5.30;;
9007;SDS011;62813;51.424;6.762;2023-11-19T00:54:57;6.23;;;4.97;;
9007;SDS011;62813;51.424;6.762;2023-11-19T00:57:23;6.53;;;5.40;;
9007;SDS011;62813;51.424;6.762;2023-11-19T00:59:50;6.70;;;5.00;;
9007;SDS011;62813;51.424;6.762;2023-11-19T01:02:17;7.13;;;4.90;;
9007;SDS011;62813;51.424;6.762;2023-11-19T01:04:44;7.87;;;5.23;;
9007;SDS011;62813;51.424;6.762;2023-11-19T01:07:11;6.30;;;4.70;;
9007;SDS011;62813;51.424;6.762;2023-11-19T01:09:41;6.07;;;5.43;;
9007;SDS011;62813;51.424;6.762;2023-11-19T01:12:09;5.93;;;4.60;;
9007;SDS011;62813;51.424;6.762;2023-11-19T01:14:37;5.40;;;4.53;;
9007;SDS011;62813;51.424;6.762;2023-11-19T01:17:03;5.70;;;4.53;;
9007;SDS011;62813;51.424;6.762;2023-11-19T01:19:31;4.63;;;4.23;;
9007;SDS011;62813;51.424;6.762;2023-11-19T01:21:58;6.23;;;4.40;;
9007;SDS011;62813;51.424;6.762;2023-11-19T01:24:25;6.87;;;4.30;;
9007;SDS011;62813;51.424;6.762;2023-11-19T01:26:55;4.70;;;3.70;;
9007;SDS011;62813;51.424;6.762;2023-11-19T01:29:22;5.00;;;4.50;;
9007;SDS011;62813;51.424;6.762;2023-11-19T01:31:49;4.90;;;4.40;;
9007;SDS011;62813;51.424;6.762;2023-11-19T01:34:17;5.83;;;4.60;;
9007;SDS011;62813;51.424;6.762;2023-11-19T01:36:46;6.80;;;4.10;;
9007;SDS011;62813;51.424;6.762;2023-11-19T01:39:15;6.70;;;4.37;;
9007;SDS011;62813;51.424;6.762;2023-11-19T01:41:43;4.30;;;3.60;;
9007;SDS011;62813;51.424;6.762;2023-11-19T01:44:09;4.20;;;3.80;;
9007;SDS011;62813;51.424;6.762;2023-11-19T01:46:40;5.33;;;3.90;;
9007;SDS011;62813;51.424;6.762;2023-11-19T01:49:08;5.00;;;4.00;;
9007;SDS011;62813;51.424;6.762;2023-11-19T01:51:35;5.40;;;3.90;;
9007;SDS011;62813;51.424;6.762;2023-11-19T01:54:02;9.73;;;4.27;;
9007;SDS011;62813;51.424;6.762;2023-11-19T01:56:29;4.63;;;4.13;;
9007;SDS011;62813;51.424;6.762;2023-11-19T01:58:57;5.50;;;4.20;;
9007;SDS011;62813;51.424;6.762;2023-11-19T02:01:24;5.40;;;3.37;;
9007;SDS011;62813;51.424;6.762;2023-11-19T02:03:51;7.37;;;4.03;;
9007;SDS011;62813;51.424;6.762;2023-11-19T02:06:19;6.30;;;4.47;;
9007;SDS011;62813;51.424;6.762;2023-11-19T02:08:46;5.93;;;4.60;;
9007;SDS011;62813;51.424;6.762;2023-11-19T02:11:12;5.53;;;3.97;;
9007;SDS011;62813;51.424;6.762;2023-11-19T02:13:40;4.77;;;3.87;;
9007;SDS011;62813;51.424;6.762;2023-11-19T02:16:08;7.00;;;3.90;;
9007;SDS011;62813;51.424;6.762;2023-11-19T02:18:37;10.13;;;4.20;;
9007;SDS011;62813;51.424;6.762;2023-11-19T02:21:04;8.60;;;3.33;;
9007;SDS011;62813;51.424;6.762;2023-11-19T02:23:31;8.57;;;3.53;;
9007;SDS011;62813;51.424;6.762;2023-11-19T02:26:03;10.87;;;3.70;;
9007;SDS011;62813;51.424;6.762;2023-11-19T02:28:32;9.30;;;3.57;;
9007;SDS011;62813;51.424;6.762;2023-11-19T02:31:00;5.47;;;2.90;;
9007;SDS011;62813;51.424;6.762;2023-11-19T02:33:27;8.03;;;3.40;;
9007;SDS011;62813;51.424;6.762;2023-11-19T02:35:54;13.37;;;3.80;;
9007;SDS011;62813;51.424;6.762;2023-11-19T02:38:20;9.00;;;3.60;;
9007;SDS011;62813;51.424;6.762;2023-11-19T02:40:48;13.27;;;3.90;;
9007;SDS011;62813;51.424;6.762;2023-11-19T02:43:15;12.23;;;4.10;;
9007;SDS011;62813;51.424;6.762;2023-11-19T02:45:42;13.17;;;4.70;;
9007;SDS011;62813;51.424;6.762;2023-11-19T02:48:12;10.90;;;4.87;;
9007;SDS011;62813;51.424;6.762;2023-11-19T02:50:42;17.57;;;5.30;;
9007;SDS011;62813;51.424;6.762;2023-11-19T02:53:09;14.70;;;5.43;;
9007;SDS011;62813;51.424;6.762;2023-11-19T02:55:37;16.20;;;5.43;;
9007;SDS011;62813;51.424;6.762;2023-11-19T02:58:05;12.47;;;5.37;;
9007;SDS011;62813;51.424;6.762;2023-11-19T03:00:46;15.03;;;5.20;;
9007;SDS011;62813;51.424;6.762;2023-11-19T03:03:24;15.33;;;5.37;;
9007;SDS011;62813;51.424;6.762;2023-11-19T03:05:57;12.17;;;5.27;;
9007;SDS011;62813;51.424;6.762;2023-11-19T03:08:24;14.40;;;5.27;;
9007;SDS011;62813;51.424;6.762;2023-11-19T03:10:50;13.00;;;5.07;;
9007;SDS011;62813;51.424;6.762;2023-11-19T03:13:17;12.43;;;4.97;;
9007;SDS011;62813;51.424;6.762;2023-11-19T03:15:44;18.50;;;5.37;;
9007;SDS011;62813;51.424;6.762;2023-11-19T03:18:12;20.37;;;5.13;;
9007;SDS011;62813;51.424;6.762;2023-11-19T03:20:39;17.37;;;5.30;;
9007;SDS011;62813;51.424;6.762;2023-11-19T03:23:06;20.70;;;4.70;;
9007;SDS011;62813;51.424;6.762;2023-11-19T03:25:33;18.80;;;4.40;;
9007;SDS011;62813;51.424;6.762;2023-11-19T03:28:00;17.47;;;4.53;;
9007;SDS011;62813;51.424;6.762;2023-11-19T03:30:29;16.00;;;3.53;;
9007;SDS011;62813;51.424;6.762;2023-11-19T03:32:59;18.20;;;4.23;;
9007;SDS011;62813;51.424;6.762;2023-11-19T03:35:28;13.03;;;3.80;;
9007;SDS011;62813;51.424;6.762;2023-11-19T03:37:55;17.70;;;4.27;;
9007;SDS011;62813;51.424;6.762;2023-11-19T03:40:22;23.73;;;4.03;;
9007;SDS011;62813;51.424;6.762;2023-11-19T03:42:49;27.70;;;4.23;;
9007;SDS011;62813;51.424;6.762;2023-11-19T03:45:16;20.03;;;3.53;;
9007;SDS011;62813;51.424;6.762;2023-11-19T03:47:42;17.57;;;3.50;;
9007;SDS011;62813;51.424;6.762;2023-11-19T03:50:09;18.87;;;3.77;;
9007;SDS011;62813;51.424;6.762;2023-11-19T03:52:36;16.33;;;4.10;;
9007;SDS011;62813;51.424;6.762;2023-11-19T03:55:06;23.10;;;4.40;;
9007;SDS011;62813;51.424;6.762;2023-11-19T03:57:35;19.40;;;3.50;;
9007;SDS011;62813;51.424;6.762;2023-11-19T04:00:02;18.43;;;3.70;;
9007;SDS011;62813;51.424;6.762;2023-11-19T04:02:35;20.90;;;3.87;;
9007;SDS011;62813;51.424;6.762;2023-11-19T04:05:03;18.43;;;3.50;;
9007;SDS011;62813;51.424;6.762;2023-11-19T04:07:31;22.07;;;3.77;;
9007;SDS011;62813;51.424;6.762;2023-11-19T04:09:58;16.67;;;3.57;;
9007;SDS011;62813;51.424;6.762;2023-11-19T04:12:26;16.37;;;4.30;;
9007;SDS011;62813;51.424;6.762;2023-11-19T04:14:52;25.53;;;4.03;;
9007;SDS011;62813;51.424;6.762;2023-11-19T04:17:22;22.03;;;4.53;;
9007;SDS011;62813;51.424;6.762;2023-11-19T04:19:49;22.67;;;3.87;;
9007;SDS011;62813;51.424;6.762;2023-11-19T04:22:16;23.23;;;4.47;;
9007;SDS011;62813;51.424;6.762;2023-11-19T04:24:43;26.17;;;4.33;;
9007;SDS011;62813;51.424;6.762;2023-11-19T04:27:12;17.87;;;3.63;;
9007;SDS011;62813;51.424;6.762;2023-11-19T04:29:40;22.20;;;5.03;;
9007;SDS011;62813;51.424;6.762;2023-11-19T04:32:06;25.07;;;4.73;;
9007;SDS011;62813;51.424;6.762;2023-11-19T04:34:34;31.93;;;4.40;;
9007;SDS011;62813;51.424;6.762;2023-11-19T04:37:01;23.00;;;4.70;;
9007;SDS011;62813;51.424;6.762;2023-11-19T04:39:39;36.20;;;4.33;;
9007;SDS011;62813;51.424;6.762;2023-11-19T04:42:05;25.37;;;4.13;;
9007;SDS011;62813;51.424;6.762;2023-11-19T04:44:33;28.10;;;4.63;;
9007;SDS011;62813;51.424;6.762;2023-11-19T04:47:00;26.77;;;4.87;;
9007;SDS011;62813;51.424;6.762;2023-11-19T04:49:27;20.40;;;4.73;;
9007;SDS011;62813;51.424;6.762;2023-11-19T04:51:54;35.23;;;5.93;;
9007;SDS011;62813;51.424;6.762;2023-11-19T04:54:21;25.90;;;4.67;;
9007;SDS011;62813;51.424;6.762;2023-11-19T04:56:48;23.67;;;4.77;;
9007;SDS011;62813;51.424;6.762;2023-11-19T04:59:15;30.57;;;4.33;;
9007;SDS011;62813;51.424;6.762;2023-11-19T05:01:46;25.07;;;4.83;;
9007;SDS011;62813;51.424;6.762;2023-11-19T05:04:14;27.40;;;5.10;;
9007;SDS011;62813;51.424;6.762;2023-11-19T05:06:41;27.33;;;5.20;;
9007;SDS011;62813;51.424;6.762;2023-11-19T05:09:08;23.63;;;4.53;;
9007;SDS011;62813;51.424;6.762;2023-11-19T05:11:35;22.57;;;4.07;;
9007;SDS011;62813;51.424;6.762;2023-11-19T05:14:15;25.90;;;4.53;;
9007;SDS011;62813;51.424;6.762;2023-11-19T05:16:43;26.77;;;5.07;;
9007;SDS011;62813;51.424;6.762;2023-11-19T05:19:09;32.37;;;5.40;;
9007;SDS011;62813;51.424;6.762;2023-11-19T05:21:36;26.43;;;4.93;;
9007;SDS011;62813;51.424;6.762;2023-11-19T05:24:03;27.43;;;5.00;;
9007;SDS011;62813;51.424;6.762;2023-11-19T05:26:33;23.97;;;5.00;;
9007;SDS011;62813;51.424;6.762;2023-11-19T05:28:59;28.07;;;4.67;;
9007;SDS011;62813;51.424;6.762;2023-11-19T05:31:26;26.97;;;5.07;;
9007;SDS011;62813;51.424;6.762;2023-11-19T05:33:53;24.27;;;4.47;;
9007;SDS011;62813;51.424;6.762;2023-11-19T05:36:20;20.77;;;4.83;;
9007;SDS011;62813;51.424;6.762;2023-11-19T05:38:46;29.73;;;5.40;;
9007;SDS011;62813;51.424;6.762;2023-11-19T05:41:13;22.00;;;4.30;;
9007;SDS011;62813;51.424;6.762;2023-11-19T05:43:40;27.83;;;4.63;;
9007;SDS011;62813;51.424;6.762;2023-11-19T05:46:07;22.27;;;4.97;;
9007;SDS011;62813;51.424;6.762;2023-11-19T05:48:38;22.83;;;4.53;;
9007;SDS011;62813;51.424;6.762;2023-11-19T05:51:05;28.93;;;4.30;;
9007;SDS011;62813;51.424;6.762;2023-11-19T05:53:35;29.27;;;5.03;;
9007;SDS011;62813;51.424;6.762;2023-11-19T05:56:01;24.20;;;4.80;;
9007;SDS011;62813;51.424;6.762;2023-11-19T05:58:30;25.10;;;4.87;;
9007;SDS011;62813;51.424;6.762;2023-11-19T06:00:57;34.37;;;4.90;;
9007;SDS011;62813;51.424;6.762;2023-11-19T06:03:26;29.00;;;5.97;;
9007;SDS011;62813;51.424;6.762;2023-11-19T06:05:53;28.37;;;5.13;;
9007;SDS011;62813;51.424;6.762;2023-11-19T06:08:23;28.07;;;4.83;;
9007;SDS011;62813;51.424;6.762;2023-11-19T06:10:50;24.13;;;4.17;;
9007;SDS011;62813;51.424;6.762;2023-11-19T06:13:17;30.43;;;4.70;;
9007;SDS011;62813;51.424;6.762;2023-11-19T06:15:46;22.33;;;4.30;;
9007;SDS011;62813;51.424;6.762;2023-11-19T06:18:12;27.77;;;5.10;;
9007;SDS011;62813;51.424;6.762;2023-11-19T06:20:40;28.33;;;5.37;;
9007;SDS011;62813;51.424;6.762;2023-11-19T06:23:09;23.17;;;5.77;;
9007;SDS011;62813;51.424;6.762;2023-11-19T06:25:36;27.20;;;4.40;;
9007;SDS011;62813;51.424;6.762;2023-11-19T06:28:03;30.07;;;5.33;;
9007;SDS011;62813;51.424;6.762;2023-11-19T06:30:30;26.60;;;5.10;;
9007;SDS011;62813;51.424;6.762;2023-11-19T06:32:59;30.77;;;5.30;;
9007;SDS011;62813;51.424;6.762;2023-11-19T06:35:26;36.87;;;5.33;;
9007;SDS011;62813;51.424;6.762;2023-11-19T06:37:55;21.67;;;5.00;;
9007;SDS011;62813;51.424;6.762;2023-11-19T06:40:22;37.03;;;5.77;;
9007;SDS011;62813;51.424;6.762;2023-11-19T06:42:49;27.90;;;6.63;;
9007;SDS011;62813;51.424;6.762;2023-11-19T06:45:15;32.70;;;6.70;;
9007;SDS011;62813;51.424;6.762;2023-11-19T06:47:42;28.73;;;5.83;;
9007;SDS011;62813;51.424;6.762;2023-11-19T06:50:09;29.10;;;4.90;;
9007;SDS011;62813;51.424;6.762;2023-11-19T06:52:36;30.87;;;5.87;;
9007;SDS011;62813;51.424;6.762;2023-11-19T06:55:04;23.27;;;5.30;;
9007;SDS011;62813;51.424;6.762;2023-11-19T06:57:34;26.50;;;5.23;;
9007;SDS011;62813;51.424;6.762;2023-11-19T07:00:01;19.03;;;4.43;;
9007;SDS011;62813;51.424;6.762;2023-11-19T07:02:29;28.90;;;5.53;;
9007;SDS011;62813;51.424;6.762;2023-11-19T07:04:56;27.17;;;4.93;;
9007;SDS011;62813;51.424;6.762;2023-11-19T07:07:23;28.97;;;4.93;;
9007;SDS011;62813;51.424;6.762;2023-11-19T07:09:49;25.70;;;5.27;;
9007;SDS011;62813;51.424;6.762;2023-11-19T07:12:17;27.13;;;4.73;;
9007;SDS011;62813;51.424;6.762;2023-11-19T07:14:43;25.57;;;5.60;;
9007;SDS011;62813;51.424;6.762;2023-11-19T07:17:10;29.37;;;6.20;;
9007;SDS011;62813;51.424;6.762;2023-11-19T07:19:37;34.50;;;5.63;;
9007;SDS011;62813;51.424;6.762;2023-11-19T07:22:05;24.93;;;5.37;;
9007;SDS011;62813;51.424;6.762;2023-11-19T07:24:33;26.27;;;5.20;;
9007;SDS011;62813;51.424;6.762;2023-11-19T07:27:00;26.70;;;5.37;;
9007;SDS011;62813;51.424;6.762;2023-11-19T07:29:27;23.87;;;4.80;;
9007;SDS011;62813;51.424;6.762;2023-11-19T07:31:55;26.07;;;5.03;;
9007;SDS011;62813;51.424;6.762;2023-11-19T07:34:23;28.07;;;4.70;;
9007;SDS011;62813;51.424;6.762;2023-11-19T07:36:51;21.47;;;4.57;;
9007;SDS011;62813;51.424;6.762;2023-11-19T07:39:18;25.43;;;4.93;;
9007;SDS011;62813;51.424;6.762;2023-11-19T07:41:47;24.37;;;4.73;;
9007;SDS011;62813;51.424;6.762;2023-11-19T07:44:14;27.73;;;4.53;;
9007;SDS011;62813;51.424;6.762;2023-11-19T07:46:41;27.67;;;4.63;;
9007;SDS011;62813;51.424;6.762;2023-11-19T07:49:09;27.33;;;4.80;;
9007;SDS011;62813;51.424;6.762;2023-11-19T07:51:36;27.83;;;4.87;;
9007;SDS011;62813;51.424;6.762;2023-11-19T07:54:03;24.23;;;5.13;;
9007;SDS011;62813;51.424;6.762;2023-11-19T07:56:31;21.37;;;4.53;;
9007;SDS011;62813;51.424;6.762;2023-11-19T07:59:00;24.90;;;5.30;;
9007;SDS011;62813;51.424;6.762;2023-11-19T08:01:30;30.37;;;5.53;;
9007;SDS011;62813;51.424;6.762;2023-11-19T08:03:57;27.67;;;4.93;;
9007;SDS011;62813;51.424;6.762;2023-11-19T08:06:25;31.90;;;5.60;;
9007;SDS011;62813;51.424;6.762;2023-11-19T08:08:52;28.93;;;4.50;;
9007;SDS011;62813;51.424;6.762;2023-11-19T08:11:19;27.87;;;5.83;;
9007;SDS011;62813;51.424;6.762;2023-11-19T08:13:46;29.67;;;6.50;;
9007;SDS011;62813;51.424;6.762;2023-11-19T08:16:13;30.40;;;4.87;;
9007;SDS011;62813;51.424;6.762;2023-11-19T08:18:42;26.47;;;5.43;;
9007;SDS011;62813;51.424;6.762;2023-11-19T08:21:09;24.97;;;4.93;;
9007;SDS011;62813;51.424;6.762;2023-11-19T08:23:37;20.33;;;4.07;;
9007;SDS011;62813;51.424;6.762;2023-11-19T08:26:05;30.30;;;5.30;;
9007;SDS011;62813;51.424;6.762;2023-11-19T08:28:32;20.97;;;5.43;;
9007;SDS011;62813;51.424;6.762;2023-11-19T08:31:01;27.93;;;4.23;;
9007;SDS011;62813;51.424;6.762;2023-11-19T08:33:31;33.70;;;7.07;;
9007;SDS011;62813;51.424;6.762;2023-11-19T08:35:58;21.83;;;5.30;;
9007;SDS011;62813;51.424;6.762;2023-11-19T08:38:25;27.50;;;5.47;;
9007;SDS011;62813;51.424;6.762;2023-11-19T08:40:55;25.83;;;5.97;;
9007;SDS011;62813;51.424;6.762;2023-11-19T08:43:26;35.53;;;7.10;;
9007;SDS011;62813;51.424;6.762;2023-11-19T08:45:55;26.70;;;5.77;;
9007;SDS011;62813;51.424;6.762;2023-11-19T08:48:22;30.07;;;6.50;;
9007;SDS011;62813;51.424;6.762;2023-11-19T08:50:49;29.90;;;5.13;;
9007;SDS011;62813;51.424;6.762;2023-11-19T08:53:16;24.17;;;5.10;;
9007;SDS011;62813;51.424;6.762;2023-11-19T08:55:43;28.23;;;5.57;;
9007;SDS011;62813;51.424;6.762;2023-11-19T08:58:09;28.27;;;6.00;;
9007;SDS011;62813;51.424;6.762;2023-11-19T09:00:36;30.50;;;6.07;;
9007;SDS011;62813;51.424;6.762;2023-11-19T09:03:03;24.63;;;5.17;;
9007;SDS011;62813;51.424;6.762;2023-11-19T09:05:30;34.27;;;6.23;;
9007;SDS011;62813;51.424;6.762;2023-11-19T09:07:57;34.53;;;7.60;;
9007;SDS011;62813;51.424;6.762;2023-11-19T09:10:24;39.07;;;7.17;;
9007;SDS011;62813;51.424;6.762;2023-11-19T09:12:50;24.40;;;6.17;;
9007;SDS011;62813;51.424;6.762;2023-11-19T09:15:17;26.03;;;5.23;;
9007;SDS011;62813;51.424;6.762;2023-11-19T09:17:44;32.03;;;6.03;;
9007;SDS011;62813;51.424;6.762;2023-11-19T09:20:12;25.97;;;6.40;;
9007;SDS011;62813;51.424;6.762;2023-11-19T09:22:42;34.17;;;5.93;;
9007;SDS011;62813;51.424;6.762;2023-11-19T09:25:09;28.17;;;5.97;;
9007;SDS011;62813;51.424;6.762;2023-11-19T09:27:36;36.73;;;7.27;;
9007;SDS011;62813;51.424;6.762;2023-11-19T09:30:03;21.37;;;5.97;;
9007;SDS011;62813;51.424;6.762;2023-11-19T09:32:30;23.37;;;7.30;;
9007;SDS011;62813;51.424;6.762;2023-11-19T09:34:57;35.50;;;6.97;;
9007;SDS011;62813;51.424;6.762;2023-11-19T09:37:24;24.23;;;5.43;;
9007;SDS011;62813;51.424;6.762;2023-11-19T09:39:51;31.30;;;5.27;;
9007;SDS011;62813;51.424;6.762;2023-11-19T09:42:19;24.03;;;5.57;;
9007;SDS011;62813;51.424;6.762;2023-11-19T09:44:47;33.20;;;6.17;;
9007;SDS011;62813;51.424;6.762;2023-11-19T09:47:14;29.27;;;5.97;;
9007;SDS011;62813;51.424;6.762;2023-11-19T09:49:43;30.50;;;6.07;;
9007;SDS011;62813;51.424;6.762;2023-11-19T09:52:10;34.83;;;8.67;;
9007;SDS011;62813;51.424;6.762;2023-11-19T09:54:37;35.87;;;12.47;;
9007;SDS011;62813;51.424;6.762;2023-11-19T09:57:04;25.67;;;6.10;;
9007;SDS011;62813;51.424;6.762;2023-11-19T09:59:34;23.53;;;5.57;;
9007;SDS011;62813;51.424;6.762;2023-11-19T10:02:00;26.93;;;5.57;;
9007;SDS011;62813;51.424;6.762;2023-11-19T10:04:30;26.13;;;5.17;;
9007;SDS011;62813;51.424;6.762;2023-11-19T10:07:01;26.33;;;4.90;;
9007;SDS011;62813;51.424;6.762;2023-11-19T10:09:28;23.90;;;5.27;;
9007;SDS011;62813;51.424;6.762;2023-11-19T10:11:54;28.07;;;5.60;;
9007;SDS011;62813;51.424;6.762;2023-11-19T10:14:23;28.93;;;5.53;;
9007;SDS011;62813;51.424;6.762;2023-11-19T10:16:50;29.40;;;5.93;;
9007;SDS011;62813;51.424;6.762;2023-11-19T10:19:20;30.47;;;5.37;;
9007;SDS011;62813;51.424;6.762;2023-11-19T10:21:48;25.90;;;5.03;;
9007;SDS011;62813;51.424;6.762;2023-11-19T10:24:15;26.90;;;5.80;;
9007;SDS011;62813;51.424;6.762;2023-11-19T10:26:44;25.83;;;4.93;;
9007;SDS011;62813;51.424;6.762;2023-11-19T10:29:12;25.97;;;5.93;;
9007;SDS011;62813;51.424;6.762;2023-11-19T10:31:40;26.30;;;5.07;;
9007;SDS011;62813;51.424;6.762;2023-11-19T10:34:11;27.10;;;5.53;;
9007;SDS011;62813;51.424;6.762;2023-11-19T10:36:51;21.13;;;4.93;;
9007;SDS011;62813;51.424;6.762;2023-11-19T10:39:18;22.27;;;4.73;;
9007;SDS011;62813;51.424;6.762;2023-11-19T10:41:45;29.00;;;5.67;;
9007;SDS011;62813;51.424;6.762;2023-11-19T10:44:12;27.93;;;5.67;;
9007;SDS011;62813;51.424;6.762;2023-11-19T10:46:39;27.40;;;4.87;;
9007;SDS011;62813;51.424;6.762;2023-11-19T10:49:07;25.13;;;5.37;;
9007;SDS011;62813;51.424;6.762;2023-11-19T10:51:34;25.33;;;5.40;;
9007;SDS011;62813;51.424;6.762;2023-11-19T10:54:02;23.20;;;5.03;;
9007;SDS011;62813;51.424;6.762;2023-11-19T10:56:32;22.07;;;6.10;;
9007;SDS011;62813;51.424;6.762;2023-11-19T10:59:00;21.40;;;4.73;;
9007;SDS011;62813;51.424;6.762;2023-11-19T11:01:28;23.93;;;5.17;;
9007;SDS011;62813;51.424;6.762;2023-11-19T11:04:01;20.07;;;4.93;;
9007;SDS011;62813;51.424;6.762;2023-11-19T11:06:29;19.53;;;4.83;;
9007;SDS011;62813;51.424;6.762;2023-11-19T11:08:56;20.77;;;4.70;;
9007;SDS011;62813;51.424;6.762;2023-11-19T11:11:24;26.77;;;5.80;;
9007;SDS011;62813;51.424;6.762;2023-11-19T11:13:53;25.30;;;5.90;;
9007;SDS011;62813;51.424;6.762;2023-11-19T11:16:22;15.77;;;4.47;;
9007;SDS011;62813;51.424;6.762;2023-11-19T11:18:51;23.30;;;5.10;;
9007;SDS011;62813;51.424;6.762;2023-11-19T11:21:20;21.50;;;4.87;;
9007;SDS011;62813;51.424;6.762;2023-11-19T11:23:56;21.73;;;4.67;;
9007;SDS011;62813;51.424;6.762;2023-11-19T11:26:51;19.10;;;4.93;;
9007;SDS011;62813;51.424;6.762;2023-11-19T11:37:47;23.53;;;4.70;;
9007;SDS011;62813;51.424;6.762;2023-11-19T11:40:17;21.67;;;4.80;;
9007;SDS011;62813;51.424;6.762;2023-11-19T11:42:50;27.27;;;5.00;;
9007;SDS011;62813;51.424;6.762;2023-11-19T11:45:18;23.20;;;4.17;;
9007;SDS011;62813;51.424;6.762;2023-11-19T11:48:20;20.90;;;4.43;;
9007;SDS011;62813;51.424;6.762;2023-11-19T11:50:50;25.03;;;4.93;;
9007;SDS011;62813;51.424;6.762;2023-11-19T11:53:18;20.00;;;4.93;;
9007;SDS011;62813;51.424;6.762;2023-11-19T11:58:21;23.97;;;4.50;;
9007;SDS011;62813;51.424;6.762;2023-11-19T12:00:51;23.93;;;4.77;;
9007;SDS011;62813;51.424;6.762;2023-11-19T12:03:21;18.73;;;4.50;;
9007;SDS011;62813;51.424;6.762;2023-11-19T12:05:49;21.77;;;4.07;;
9007;SDS011;62813;51.424;6.762;2023-11-19T12:08:25;25.63;;;4.87;;
9007;SDS011;62813;51.424;6.762;2023-11-19T12:10:54;22.20;;;4.70;;
9007;SDS011;62813;51.424;6.762;2023-11-19T12:13:29;19.47;;;4.23;;
9007;SDS011;62813;51.424;6.762;2023-11-19T12:16:12;21.47;;;4.90;;
9007;SDS011;62813;51.424;6.762;2023-11-19T12:18:39;20.27;;;4.40;;
9007;SDS011;62813;51.424;6.762;2023-11-19T12:21:07;18.10;;;5.80;;
9007;SDS011;62813;51.424;6.762;2023-11-19T12:23:43;20.73;;;4.70;;
9007;SDS011;62813;51.424;6.762;2023-11-19T12:26:20;20.53;;;5.00;;
9007;SDS011;62813;51.424;6.762;2023-11-19T12:28:57;21.33;;;5.73;;
9007;SDS011;62813;51.424;6.762;2023-11-19T12:31:30;23.40;;;5.07;;
9007;SDS011;62813;51.424;6.762;2023-11-19T12:33:57;22.93;;;6.20;;
9007;SDS011;62813;51.424;6.762;2023-11-19T12:36:24;25.20;;;6.20;;
9007;SDS011;62813;51.424;6.762;2023-11-19T12:38:51;21.73;;;6.00;;
9007;SDS011;62813;51.424;6.762;2023-11-19T12:41:18;19.80;;;5.77;;
9007;SDS011;62813;51.424;6.762;2023-11-19T12:43:49;26.30;;;5.83;;
9007;SDS011;62813;51.424;6.762;2023-11-19T12:46:17;22.90;;;5.83;;
9007;SDS011;62813;51.424;6.762;2023-11-19T12:48:48;17.73;;;4.03;;
9007;SDS011;62813;51.424;6.762;2023-11-19T12:51:16;15.70;;;3.90;;
9007;SDS011;62813;51.424;6.762;2023-11-19T12:53:50;17.10;;;3.67;;
9007;SDS011;62813;51.424;6.762;2023-11-19T12:56:21;20.10;;;4.23;;
9007;SDS011;62813;51.424;6.762;2023-11-19T12:58:48;14.73;;;3.30;;
9007;SDS011;62813;51.424;6.762;2023-11-19T13:01:15;14.13;;;3.77;;
9007;SDS011;62813;51.424;6.762;2023-11-19T13:03:47;14.70;;;3.07;;
9007;SDS011;62813;51.424;6.762;2023-11-19T13:06:15;18.20;;;3.50;;
9007;SDS011;62813;51.424;6.762;2023-11-19T13:08:43;16.97;;;3.37;;
9007;SDS011;62813;51.424;6.762;2023-11-19T13:11:12;12.00;;;3.17;;
9007;SDS011;62813;51.424;6.762;2023-11-19T13:13:58;11.87;;;3.23;;
9007;SDS011;62813;51.424;6.762;2023-11-19T13:16:27;22.80;;;11.67;;
9007;SDS011;62813;51.424;6.762;2023-11-19T13:18:55;13.03;;;3.73;;
9007;SDS011;62813;51.424;6.762;2023-11-19T13:21:22;11.80;;;3.40;;
9007;SDS011;62813;51.424;6.762;2023-11-19T13:23:49;23.30;;;6.10;;
9007;SDS011;62813;51.424;6.762;2023-11-19T13:26:16;18.80;;;6.47;;
9007;SDS011;62813;51.424;6.762;2023-11-19T13:28:44;28.50;;;9.27;;
9007;SDS011;62813;51.424;6.762;2023-11-19T13:31:10;26.07;;;8.23;;
9007;SDS011;62813;51.424;6.762;2023-11-19T13:33:37;26.53;;;6.87;;
9007;SDS011;62813;51.424;6.762;2023-11-19T13:36:04;25.00;;;7.27;;
9007;SDS011;62813;51.424;6.762;2023-11-19T13:38:35;27.73;;;8.43;;
9007;SDS011;62813;51.424;6.762;2023-11-19T13:41:02;23.73;;;7.37;;
9007;SDS011;62813;51.424;6.762;2023-11-19T13:43:31;20.90;;;6.60;;
9007;SDS011;62813;51.424;6.762;2023-11-19T13:45:58;24.63;;;8.77;;
9007;SDS011;62813;51.424;6.762;2023-11-19T13:48:25;27.80;;;8.00;;
9007;SDS011;62813;51.424;6.762;2023-11-19T13:50:53;20.57;;;7.33;;
9007;SDS011;62813;51.424;6.762;2023-11-19T13:53:20;27.20;;;8.97;;
9007;SDS011;62813;51.424;6.762;2023-11-19T13:55:48;33.87;;;10.97;;
9007;SDS011;62813;51.424;6.762;2023-11-19T13:58:14;28.97;;;11.40;;
9007;SDS011;62813;51.424;6.762;2023-11-19T14:00:42;23.87;;;7.77;;
9007;SDS011;62813;51.424;6.762;2023-11-19T14:03:11;22.53;;;8.47;;
9007;SDS011;62813;51.424;6.762;2023-11-19T14:05:39;26.73;;;8.90;;
9007;SDS011;62813;51.424;6.762;2023-11-19T14:08:07;21.23;;;6.83;;
9007;SDS011;62813;51.424;6.762;2023-11-19T14:10:50;19.83;;;6.20;;
9007;SDS011;62813;51.424;6.762;2023-11-19T14:13:17;23.17;;;6.33;;
9007;SDS011;62813;51.424;6.762;2023-11-19T14:15:44;17.70;;;4.50;;
9007;SDS011;62813;51.424;6.762;2023-11-19T14:18:15;18.43;;;4.33;;
9007;SDS011;62813;51.424;6.762;2023-11-19T14:20:42;19.17;;;4.80;;
9007;SDS011;62813;51.424;6.762;2023-11-19T14:23:09;24.33;;;5.47;;
9007;SDS011;62813;51.424;6.762;2023-11-19T14:25:36;22.53;;;5.00;;
9007;SDS011;62813;51.424;6.762;2023-11-19T14:28:02;19.17;;;4.93;;
9007;SDS011;62813;51.424;6.762;2023-11-19T14:30:32;22.47;;;6.67;;
9007;SDS011;62813;51.424;6.762;2023-11-19T14:33:00;25.23;;;8.33;;
9007;SDS011;62813;51.424;6.762;2023-11-19T14:35:28;27.57;;;8.17;;
9007;SDS011;62813;51.424;6.762;2023-11-19T14:37:57;25.97;;;8.07;;
9007;SDS011;62813;51.424;6.762;2023-11-19T14:40:23;25.80;;;6.67;;
9007;SDS011;62813;51.424;6.762;2023-11-19T14:43:08;16.83;;;6.20;;
9007;SDS011;62813;51.424;6.762;2023-11-19T14:45:37;20.57;;;4.93;;
9007;SDS011;62813;51.424;6.762;2023-11-19T14:48:14;14.90;;;4.03;;
9007;SDS011;62813;51.424;6.762;2023-11-19T14:50:41;19.60;;;4.40;;
9007;SDS011;62813;51.424;6.762;2023-11-19T14:53:08;19.90;;;5.83;;
9007;SDS011;62813;51.424;6.762;2023-11-19T14:55:35;24.53;;;7.23;;
9007;SDS011;62813;51.424;6.762;2023-11-19T14:58:02;24.20;;;7.30;;
9007;SDS011;62813;51.424;6.762;2023-11-19T15:00:36;21.27;;;6.97;;
9007;SDS011;62813;51.424;6.762;2023-11-19T15:03:02;20.37;;;5.17;;
9007;SDS011;62813;51.424;6.762;2023-11-19T15:05:29;22.67;;;5.17;;
9007;SDS011;62813;51.424;6.762;2023-11-19T15:07:56;18.23;;;4.57;;